createdAt,value
2024-03-26T00:03:51.066Z,5.55
2024-03-26T00:08:53.786Z,8.85
2024-03-26T00:13:57.916Z,8.27
2024-03-26T00:19:00.641Z,6.01
2024-03-26T00:24:03.344Z,5.61
2024-03-26T00:29:06.890Z,8.71
2024-03-26T00:34:09.645Z,7.12
2024-03-26T00:39:12.398Z,5.13
2024-03-26T00:44:15.076Z,5.69
2024-03-26T00:49:17.827Z,8.70
2024-03-26T00:54:22.165Z,6.77
2024-03-26T00:59:26.110Z,4.82
2024-03-26T01:04:28.846Z,5.34
2024-03-26T01:09:31.539Z,8.55
2024-03-26T01:14:34.231Z,6.80
2024-03-26T01:19:36.910Z,4.69
2024-03-26T01:24:39.907Z,5.11
2024-03-26T01:29:42.663Z,8.44
2024-03-26T01:34:45.366Z,7.04
2024-03-26T01:39:48.158Z,5.13
2024-03-26T01:44:50.870Z,4.06
2024-03-26T01:49:56.004Z,5.17
2024-03-26T01:54:59.882Z,8.84
2024-03-26T02:00:04.216Z,8.54
2024-03-26T02:05:07.290Z,6.19
2024-03-26T02:10:10.136Z,4.88
2024-03-26T02:15:12.875Z,6.86
2024-03-26T02:20:16.356Z,9.51
2024-03-26T02:25:19.004Z,7.12
2024-03-26T02:30:21.778Z,5.34
2024-03-26T02:35:24.491Z,4.29
2024-03-26T02:40:27.324Z,5.50
2024-03-26T02:45:30.265Z,9.19
2024-03-26T02:50:32.956Z,7.85
2024-03-26T02:55:35.643Z,5.86
2024-03-26T03:00:38.372Z,6.64
2024-03-26T03:05:41.862Z,9.66
2024-03-26T03:10:44.555Z,7.74
2024-03-26T03:15:47.247Z,6.01
2024-03-26T03:20:50.173Z,6.81
2024-03-26T03:25:57.374Z,9.83
2024-03-26T03:31:00.071Z,8.53
2024-03-26T03:36:02.796Z,6.54
2024-03-26T03:41:05.533Z,5.40
2024-03-26T03:46:08.240Z,6.32
2024-03-26T03:51:10.936Z,9.79
2024-03-26T03:56:13.631Z,9.15
2024-03-26T04:01:16.333Z,6.75
2024-03-26T04:06:19.045Z,5.24
2024-03-26T04:11:21.778Z,5.99
2024-03-26T04:16:24.669Z,9.42
2024-03-26T04:21:27.398Z,9.81
2024-03-26T04:26:30.149Z,7.31
2024-03-26T04:31:32.826Z,7.20
2024-03-26T04:36:35.518Z,10.26
2024-03-26T04:41:38.436Z,8.40
2024-03-26T04:46:41.146Z,6.45
2024-03-26T04:51:43.831Z,5.29
2024-03-26T04:56:46.517Z,7.14
2024-03-26T05:01:49.758Z,9.62
2024-03-26T05:06:52.459Z,7.39
2024-03-26T05:11:55.865Z,5.64
2024-03-26T05:16:58.636Z,6.20
2024-03-26T05:22:01.457Z,9.77
2024-03-26T05:27:04.287Z,8.40
2024-03-26T05:32:06.972Z,6.30
2024-03-26T05:37:09.658Z,5.12
2024-03-26T05:42:12.487Z,5.83
2024-03-26T05:47:15.253Z,9.10
2024-03-26T05:52:17.928Z,9.29
2024-03-26T05:57:20.736Z,6.92
2024-03-26T06:02:23.421Z,5.55
2024-03-26T06:07:26.127Z,4.63
2024-03-26T06:12:28.911Z,5.62
2024-03-26T06:17:31.747Z,9.19
2024-03-26T06:22:34.989Z,9.52
2024-03-26T06:27:37.668Z,7.37
2024-03-26T06:32:40.774Z,6.21
2024-03-26T06:37:43.609Z,5.50
2024-03-26T06:42:46.349Z,5.11
2024-03-26T06:47:49.483Z,7.85
2024-03-26T06:52:52.331Z,10.42
2024-03-26T06:57:55.156Z,9.24
2024-03-26T07:02:58.532Z,7.49
2024-03-26T07:08:02.775Z,6.89
2024-03-26T07:13:09.399Z,10.08
2024-03-26T07:18:16.201Z,11.03
2024-03-26T07:23:22.205Z,9.03
2024-03-26T07:28:26.591Z,7.87
2024-03-26T07:33:31.014Z,8.81
2024-03-26T07:38:35.273Z,12.06
2024-03-26T07:43:38.771Z,10.98
2024-03-26T07:48:41.399Z,9.45
2024-03-26T07:53:44.282Z,8.65
2024-03-26T07:58:47.384Z,8.18
2024-03-26T08:03:51.045Z,10.33
2024-03-26T08:08:55.319Z,13.19
2024-03-26T08:13:58.681Z,11.72
2024-03-26T08:19:01.689Z,10.36
2024-03-26T08:24:07.443Z,9.70
2024-03-26T08:29:10.199Z,11.19
2024-03-26T08:34:12.939Z,13.03
2024-03-26T08:39:15.691Z,11.49
2024-03-26T08:44:18.452Z,10.68
2024-03-26T08:49:21.273Z,11.86
2024-03-26T08:54:24.483Z,13.73
2024-03-26T08:59:27.308Z,12.40
2024-03-26T09:04:30.362Z,11.69
2024-03-26T09:09:33.509Z,11.33
2024-03-26T09:14:36.929Z,11.14
2024-03-26T09:19:39.896Z,11.85
2024-03-26T09:24:50.419Z,12.71
2024-03-26T09:29:54.049Z,12.02
2024-03-26T09:34:56.798Z,11.71
2024-03-26T09:39:59.487Z,11.53
2024-03-26T09:45:06.122Z,11.45
2024-03-26T09:50:12.153Z,11.96
2024-03-26T09:55:17.525Z,14.50
2024-03-26T10:00:21.352Z,13.61
2024-03-26T10:05:25.919Z,12.90
2024-03-26T10:10:32.955Z,12.63
2024-03-26T10:15:36.166Z,12.59
2024-03-26T10:20:39.756Z,12.63
2024-03-26T10:25:42.523Z,12.66
2024-03-26T10:30:46.277Z,12.73
2024-03-26T10:35:55.814Z,12.86
2024-03-26T10:41:04.086Z,12.99
2024-03-26T10:46:08.360Z,13.14
2024-03-26T10:51:12.733Z,13.18
2024-03-26T10:56:16.865Z,13.24
2024-03-26T11:01:22.538Z,13.29
2024-03-26T11:06:29.632Z,13.31
2024-03-26T11:11:45.839Z,13.20
2024-03-26T11:22:15.577Z,13.34
2024-03-26T11:27:18.433Z,13.44
2024-03-26T11:32:22.516Z,13.42
2024-03-26T11:37:26.046Z,13.42
2024-03-26T11:42:28.979Z,13.44
2024-03-26T11:47:35.751Z,13.41
2024-03-26T11:52:39.863Z,13.40
2024-03-26T11:57:44.098Z,13.40
2024-03-26T12:02:47.505Z,13.57
2024-03-26T12:07:52.655Z,13.67
2024-03-26T12:12:56.229Z,13.68
2024-03-26T12:17:59.284Z,13.79
2024-03-26T12:23:05.858Z,13.96
2024-03-26T12:28:13.611Z,13.97
2024-03-26T12:33:16.455Z,13.82
2024-03-26T12:38:19.258Z,13.73
2024-03-26T12:43:21.853Z,13.74
2024-03-26T12:48:24.761Z,13.73
2024-03-26T12:53:28.806Z,13.63
2024-03-26T12:58:31.860Z,13.60
2024-03-26T13:03:34.955Z,13.45
2024-03-26T13:08:37.777Z,13.34
2024-03-26T13:13:42.381Z,13.23
2024-03-26T13:18:45.076Z,13.36
2024-03-26T13:23:48.155Z,13.48
2024-03-26T13:28:50.876Z,13.57
2024-03-26T13:33:54.486Z,13.71
2024-03-26T13:38:57.237Z,13.89
2024-03-26T13:44:00.584Z,14.11
2024-03-26T13:49:04.038Z,14.34
2024-03-26T13:54:06.967Z,14.64
2024-03-26T13:59:09.581Z,14.78
2024-03-26T14:04:12.429Z,14.67
2024-03-26T14:09:15.861Z,14.39
2024-03-26T14:14:19.138Z,14.08
2024-03-26T14:19:21.995Z,13.86
2024-03-26T14:24:25.353Z,13.62
2024-03-26T14:29:28.115Z,13.54
2024-03-26T14:34:32.097Z,13.50
2024-03-26T14:39:35.340Z,13.70
2024-03-26T14:44:37.915Z,14.05
2024-03-26T14:49:40.647Z,14.10
2024-03-26T14:54:43.795Z,14.31
2024-03-26T14:59:46.694Z,14.34
2024-03-26T15:04:49.704Z,14.57
2024-03-26T15:09:52.918Z,14.78
2024-03-26T15:14:55.620Z,15.00
2024-03-26T15:19:58.910Z,15.47
2024-03-26T15:25:02.093Z,16.03
2024-03-26T15:30:26.453Z,16.18
2024-03-26T15:35:29.467Z,16.09
2024-03-26T15:40:32.368Z,16.30
2024-03-26T15:45:35.488Z,16.72
2024-03-26T15:50:38.399Z,17.18
2024-03-26T15:55:41.115Z,17.39
2024-03-26T16:00:43.893Z,17.32
2024-03-26T16:05:46.881Z,17.16
2024-03-26T16:11:08.280Z,17.25
2024-03-26T16:16:14.088Z,17.18
2024-03-26T16:21:17.106Z,16.74
2024-03-26T16:26:20.060Z,16.03
2024-03-26T16:31:24.132Z,15.05
2024-03-26T16:36:27.713Z,13.92
2024-03-26T16:41:34.169Z,12.89
2024-03-26T16:46:38.509Z,11.96
2024-03-26T16:51:44.254Z,11.14
2024-03-26T16:56:47.043Z,10.48
2024-03-26T17:01:49.847Z,9.94
2024-03-26T17:06:52.953Z,9.50
2024-03-26T17:11:56.066Z,9.12
2024-03-26T17:17:09.565Z,8.80
2024-03-26T17:22:17.275Z,8.53
2024-03-26T17:27:20.243Z,8.32
2024-03-26T17:32:23.068Z,8.15
2024-03-26T17:37:26.248Z,7.97
2024-03-26T17:42:33.463Z,7.81
2024-03-26T17:47:36.412Z,7.68
2024-03-26T17:52:39.233Z,7.54
2024-03-26T17:57:42.469Z,7.44
2024-03-26T18:02:49.571Z,7.34
2024-03-26T18:07:52.479Z,7.24
2024-03-26T18:12:55.711Z,7.14
2024-03-26T18:17:58.406Z,7.10
2024-03-26T18:23:01.190Z,7.07
2024-03-26T18:28:05.024Z,7.06
2024-03-26T18:33:08.785Z,7.08
2024-03-26T18:38:14.504Z,8.68
2024-03-26T18:43:17.307Z,11.96
2024-03-26T18:48:21.084Z,10.68
2024-03-26T18:53:25.218Z,9.49
2024-03-26T18:58:29.609Z,8.82
2024-03-26T19:03:32.815Z,8.41
2024-03-26T19:08:35.817Z,8.10
2024-03-26T19:13:38.620Z,7.86
2024-03-26T19:18:41.831Z,7.66
2024-03-26T19:23:44.939Z,7.48
2024-03-26T19:28:47.847Z,7.30
2024-03-26T19:33:50.649Z,7.15
2024-03-26T19:38:53.451Z,7.00
2024-03-26T19:43:56.249Z,8.56
2024-03-26T19:48:59.772Z,12.30
2024-03-26T19:54:02.577Z,12.78
2024-03-26T19:59:05.367Z,10.65
2024-03-26T20:04:09.609Z,9.47
2024-03-26T20:09:12.521Z,8.72
2024-03-26T20:14:15.720Z,8.20
2024-03-26T20:19:18.828Z,7.80
2024-03-26T20:24:21.939Z,7.52
2024-03-26T20:29:24.843Z,9.58
2024-03-26T20:34:29.556Z,11.81
2024-03-26T20:39:32.488Z,10.12
2024-03-26T20:44:37.455Z,9.05
2024-03-26T20:49:40.854Z,8.36
2024-03-26T20:54:43.661Z,7.90
2024-03-26T20:59:46.468Z,7.56
2024-03-26T21:04:49.277Z,7.27
2024-03-26T21:09:52.370Z,7.09
2024-03-26T21:14:55.298Z,9.91
2024-03-26T21:20:13.645Z,12.67
2024-03-26T21:25:16.662Z,11.02
2024-03-26T21:30:19.451Z,9.42
2024-03-26T21:35:23.477Z,8.45
2024-03-26T21:40:26.601Z,7.82
2024-03-26T21:45:29.233Z,7.31
2024-03-26T21:50:32.085Z,6.91
2024-03-26T21:55:35.604Z,8.08
2024-03-26T22:00:38.401Z,11.86
2024-03-26T22:05:41.715Z,11.31
2024-03-26T22:10:44.477Z,9.44
2024-03-26T22:15:47.521Z,8.31
2024-03-26T22:20:54.562Z,7.60
2024-03-26T22:26:09.012Z,7.09
2024-03-26T22:31:12.215Z,6.72
2024-03-26T22:36:15.317Z,8.81
2024-03-26T22:41:18.422Z,12.09
2024-03-26T22:46:21.231Z,10.94
2024-03-26T22:51:24.138Z,9.13
2024-03-26T22:56:27.549Z,8.12
2024-03-26T23:01:30.347Z,7.43
2024-03-26T23:06:33.147Z,6.92
2024-03-26T23:11:36.053Z,6.52
2024-03-26T23:16:38.806Z,7.77
2024-03-26T23:21:43.511Z,11.49
2024-03-26T23:26:46.301Z,11.60
2024-03-26T23:31:49.409Z,9.55
2024-03-26T23:36:52.214Z,8.34
2024-03-26T23:41:55.010Z,7.58
2024-03-26T23:46:57.817Z,6.98
2024-03-26T23:52:00.841Z,6.53
2024-03-26T23:57:03.764Z,6.15
